createdAt,value
2023-02-17T00:01:53.894Z,73.62
2023-02-17T00:06:56.210Z,73.38
2023-02-17T00:11:56.901Z,74.02
2023-02-17T00:16:57.598Z,73.41
2023-02-17T00:22:01.581Z,73.37
2023-02-17T00:27:02.219Z,74.59
2023-02-17T00:32:03.278Z,74.01
2023-02-17T00:37:05.588Z,73.90
2023-02-17T00:42:06.823Z,73.79
2023-02-17T00:47:07.481Z,74.51
2023-02-17T00:52:09.651Z,74.41
2023-02-17T00:57:10.329Z,74.13
2023-02-17T01:02:11.318Z,74.51
2023-02-17T01:07:13.359Z,74.89
2023-02-17T01:12:14.197Z,75.06
2023-02-17T01:17:14.838Z,73.78
2023-02-17T01:22:16.858Z,74.20
2023-02-17T01:27:17.549Z,73.48
2023-02-17T01:32:18.226Z,73.91
2023-02-17T01:37:20.244Z,73.97
2023-02-17T01:42:21.190Z,73.70
2023-02-17T01:47:22.562Z,73.63
2023-02-17T01:52:27.164Z,73.23
2023-02-17T01:57:31.288Z,72.97
2023-02-17T02:02:32.272Z,72.78
2023-02-17T02:07:36.755Z,73.02
2023-02-17T02:12:40.090Z,73.48
2023-02-17T02:17:55.730Z,73.14
2023-02-17T02:23:18.300Z,74.57
2023-02-17T02:28:32.047Z,73.66
2023-02-17T02:33:41.808Z,74.25
2023-02-17T02:38:46.268Z,73.69
2023-02-17T02:43:48.733Z,73.84
2023-02-17T02:48:52.320Z,74.13
2023-02-17T02:54:29.673Z,74.98
2023-02-17T02:59:43.963Z,75.63
2023-02-17T03:04:55.730Z,74.60
2023-02-17T03:09:59.016Z,74.00
2023-02-17T03:15:03.878Z,73.65
2023-02-17T03:20:08.415Z,71.46
2023-02-17T03:25:09.870Z,70.05
2023-02-17T03:30:12.080Z,69.38
2023-02-17T03:35:14.739Z,69.34
2023-02-17T03:40:15.449Z,68.53
2023-02-17T03:45:16.161Z,68.17
2023-02-17T03:50:18.462Z,67.94
2023-02-17T03:55:19.298Z,67.82
2023-02-17T04:00:21.769Z,68.57
2023-02-17T04:05:26.114Z,68.71
2023-02-17T04:10:26.800Z,68.59
2023-02-17T04:15:27.484Z,69.25
2023-02-17T04:20:29.622Z,71.36
2023-02-17T04:25:30.278Z,74.19
2023-02-17T04:30:31.016Z,76.42
2023-02-17T04:35:33.263Z,78.18
2023-02-17T04:40:34.352Z,77.89
2023-02-17T04:45:35.636Z,77.55
2023-02-17T04:50:37.713Z,77.46
2023-02-17T04:55:38.455Z,77.31
2023-02-17T05:00:39.126Z,77.37
2023-02-17T05:05:41.143Z,77.44
2023-02-17T05:10:41.795Z,77.85
2023-02-17T05:15:44.395Z,77.55
2023-02-17T05:20:46.369Z,78.01
2023-02-17T05:25:47.039Z,79.50
2023-02-17T05:30:49.680Z,80.12
2023-02-17T05:35:51.770Z,80.16
2023-02-17T05:40:52.422Z,80.28
2023-02-17T05:45:53.147Z,80.69
2023-02-17T05:50:55.191Z,80.71
2023-02-17T05:55:55.956Z,80.11
2023-02-17T06:00:56.648Z,79.93
2023-02-17T06:05:58.618Z,79.82
2023-02-17T06:10:59.297Z,80.21
2023-02-17T06:16:00.209Z,79.12
2023-02-17T06:21:02.228Z,78.50
2023-02-17T06:26:02.936Z,77.77
2023-02-17T06:31:03.657Z,77.80
2023-02-17T06:36:06.871Z,77.73
2023-02-17T06:41:07.704Z,76.63
2023-02-17T06:46:08.783Z,77.01
2023-02-17T06:51:10.999Z,76.10
2023-02-17T06:56:11.873Z,75.93
2023-02-17T07:01:21.934Z,75.37
2023-02-17T07:06:25.395Z,75.29
2023-02-17T07:11:27.293Z,74.28
2023-02-17T07:16:29.899Z,74.70
2023-02-17T07:21:32.065Z,74.12
2023-02-17T07:26:33.086Z,73.45
2023-02-17T07:31:34.511Z,74.04
2023-02-17T07:36:36.543Z,74.23
2023-02-17T07:41:37.263Z,74.25
2023-02-17T07:46:43.145Z,74.70
2023-02-17T07:51:45.164Z,74.59
2023-02-17T07:56:45.926Z,74.43
2023-02-17T08:01:46.781Z,74.59
2023-02-17T08:06:48.823Z,74.62
2023-02-17T08:12:06.962Z,74.77
2023-02-17T08:17:08.252Z,74.60
2023-02-17T08:22:10.275Z,74.83
2023-02-17T08:27:10.963Z,74.01
2023-02-17T08:32:12.280Z,73.44
2023-02-17T08:37:14.327Z,74.03
2023-02-17T08:42:15.005Z,73.89
2023-02-17T08:47:15.719Z,73.68
2023-02-17T08:52:17.778Z,73.84
2023-02-17T08:57:21.544Z,73.75
2023-02-17T09:02:22.250Z,72.62
2023-02-17T09:07:24.371Z,72.20
2023-02-17T09:12:25.039Z,71.71
2023-02-17T09:17:25.693Z,71.42
2023-02-17T09:22:31.893Z,70.29
2023-02-17T09:27:33.252Z,70.37
2023-02-17T09:32:34.063Z,69.35
2023-02-17T09:37:36.077Z,69.50
2023-02-17T09:42:41.723Z,67.97
2023-02-17T09:47:48.287Z,67.03
2023-02-17T09:52:56.596Z,67.02
2023-02-17T09:58:02.759Z,65.67
2023-02-17T10:03:12.997Z,66.16
2023-02-17T10:08:20.086Z,64.58
2023-02-17T10:13:24.154Z,64.92
2023-02-17T10:18:31.859Z,64.91
2023-02-17T10:23:35.042Z,65.02
2023-02-17T10:28:48.283Z,65.22
2023-02-17T10:33:55.202Z,64.43
2023-02-17T10:39:02.880Z,64.63
2023-02-17T10:44:10.072Z,65.07
2023-02-17T10:49:20.356Z,64.43
2023-02-17T10:54:33.774Z,63.94
2023-02-17T10:59:40.332Z,65.13
2023-02-17T11:04:43.188Z,65.24
2023-02-17T11:09:50.215Z,64.91
2023-02-17T11:14:54.887Z,66.06
2023-02-17T11:19:58.828Z,66.35
2023-02-17T11:25:03.507Z,66.52
2023-02-17T11:30:18.697Z,67.64
2023-02-17T11:35:26.757Z,69.28
2023-02-17T11:40:30.424Z,69.95
2023-02-17T11:45:41.310Z,69.51
2023-02-17T11:50:49.034Z,69.14
2023-02-17T11:56:06.492Z,68.68
2023-02-17T12:01:20.884Z,68.50
2023-02-17T12:06:30.256Z,68.92
2023-02-17T12:11:40.718Z,69.28
2023-02-17T12:16:51.022Z,68.69
2023-02-17T12:22:02.524Z,70.04
2023-02-17T12:27:11.199Z,68.87
2023-02-17T12:32:24.265Z,68.83
2023-02-17T12:37:27.986Z,67.82
2023-02-17T12:42:36.254Z,68.69
2023-02-17T12:47:46.784Z,67.30
2023-02-17T12:52:53.233Z,67.89
2023-02-17T12:57:58.580Z,67.02
2023-02-17T13:03:00.003Z,67.12
2023-02-17T13:08:05.733Z,66.57
2023-02-17T13:13:11.711Z,66.77
2023-02-17T13:18:14.840Z,66.20
2023-02-17T13:23:31.950Z,65.62
2023-02-17T13:28:37.648Z,65.50
2023-02-17T13:33:44.383Z,65.59
2023-02-17T13:39:00.429Z,65.43
2023-02-17T13:44:19.582Z,65.39
2023-02-17T13:49:24.214Z,65.96
2023-02-17T13:54:24.887Z,65.57
2023-02-17T13:59:28.280Z,65.48
2023-02-17T14:04:31.507Z,64.42
2023-02-17T14:09:53.421Z,64.19
2023-02-17T14:14:55.450Z,64.27
2023-02-17T14:19:56.365Z,64.18
2023-02-17T14:25:03.889Z,63.56
2023-02-17T14:30:07.589Z,63.29
2023-02-17T14:35:11.262Z,62.83
2023-02-17T14:40:17.836Z,62.92
2023-02-17T14:45:20.687Z,63.61
2023-02-17T14:50:21.461Z,63.48
2023-02-17T14:55:32.436Z,63.02
2023-02-17T15:00:34.450Z,62.85
2023-02-17T15:05:35.378Z,63.56
2023-02-17T15:10:38.088Z,63.27
2023-02-17T15:15:44.444Z,63.62
2023-02-17T15:20:46.851Z,64.09
2023-02-17T15:25:48.971Z,63.97
2023-02-17T15:30:54.497Z,64.51
2023-02-17T15:35:55.824Z,65.08
2023-02-17T15:40:58.708Z,65.52
2023-02-17T15:46:00.903Z,65.47
2023-02-17T15:51:01.638Z,66.45
2023-02-17T15:56:02.367Z,66.41
2023-02-17T16:01:04.826Z,66.39
2023-02-17T16:06:06.394Z,67.41
2023-02-17T16:11:07.296Z,67.32
2023-02-17T16:16:16.644Z,67.59
2023-02-17T16:21:18.850Z,67.20
2023-02-17T16:26:25.935Z,67.33
2023-02-17T16:31:28.285Z,67.83
2023-02-17T16:36:32.188Z,67.56
2023-02-17T16:41:32.936Z,66.76
2023-02-17T16:46:37.440Z,66.72
2023-02-17T16:51:38.168Z,67.07
2023-02-17T16:56:42.817Z,66.97
2023-02-17T17:01:45.445Z,67.75
2023-02-17T17:06:48.693Z,66.85
2023-02-17T17:11:49.710Z,67.42
2023-02-17T17:16:55.780Z,67.26
2023-02-17T17:21:56.557Z,66.53
2023-02-17T17:26:57.214Z,66.30
2023-02-17T17:31:59.331Z,66.68
2023-02-17T17:37:00.331Z,66.57
2023-02-17T17:42:00.985Z,65.62
2023-02-17T17:47:03.734Z,65.56
2023-02-17T17:52:04.567Z,66.02
2023-02-17T17:57:06.414Z,65.48
2023-02-17T18:02:08.647Z,65.55
2023-02-17T18:07:09.427Z,65.77
2023-02-17T18:12:12.559Z,66.38
2023-02-17T18:17:18.023Z,67.48
2023-02-17T18:22:18.677Z,71.15
2023-02-17T18:27:19.370Z,77.97
2023-02-17T18:32:22.039Z,81.86
2023-02-17T18:37:22.697Z,83.69
2023-02-17T18:42:23.454Z,85.24
2023-02-17T18:47:25.754Z,86.89
2023-02-17T18:52:26.868Z,88.08
2023-02-17T18:57:27.611Z,88.35
2023-02-17T19:02:29.879Z,87.66
2023-02-17T19:07:30.556Z,86.59
2023-02-17T19:12:31.297Z,86.82
2023-02-17T19:17:33.455Z,86.76
2023-02-17T19:22:36.138Z,85.88
2023-02-17T19:27:39.720Z,86.51
2023-02-17T19:32:41.916Z,85.61
2023-02-17T19:37:42.630Z,84.15
2023-02-17T19:42:43.323Z,82.98
2023-02-17T19:47:46.210Z,80.99
2023-02-17T19:52:46.879Z,79.77
2023-02-17T19:57:50.422Z,79.15
2023-02-17T20:02:52.543Z,78.03
2023-02-17T20:07:54.207Z,78.13
2023-02-17T20:12:54.920Z,78.96
2023-02-17T20:17:56.916Z,77.16
2023-02-17T20:22:57.605Z,77.42
2023-02-17T20:27:58.278Z,77.98
2023-02-17T20:33:00.492Z,76.86
2023-02-17T20:38:01.588Z,77.09
2023-02-17T20:43:02.725Z,76.91
2023-02-17T20:48:05.073Z,75.96
2023-02-17T20:53:05.836Z,76.65
2023-02-17T20:58:06.981Z,75.91
2023-02-17T21:03:09.062Z,76.52
2023-02-17T21:08:09.917Z,76.45
2023-02-17T21:13:10.637Z,75.99
2023-02-17T21:18:12.731Z,76.31
2023-02-17T21:23:13.516Z,74.00
2023-02-17T21:28:16.631Z,73.68
2023-02-17T21:33:19.475Z,73.72
2023-02-17T21:38:21.242Z,73.83
2023-02-17T21:43:39.516Z,74.00
2023-02-17T21:48:41.741Z,73.92
2023-02-17T21:53:42.436Z,73.39
2023-02-17T21:58:46.845Z,72.38
2023-02-17T22:03:48.989Z,73.05
2023-02-17T22:08:50.172Z,72.95
2023-02-17T22:13:54.243Z,75.24
2023-02-17T22:18:56.274Z,77.97
2023-02-17T22:23:58.424Z,78.51
2023-02-17T22:28:59.281Z,79.10
2023-02-17T22:34:03.266Z,77.60
2023-02-17T22:39:05.937Z,75.81
2023-02-17T22:44:06.882Z,76.98
2023-02-17T22:49:08.970Z,77.38
2023-02-17T22:54:10.036Z,76.78
2023-02-17T22:59:10.723Z,79.16
2023-02-17T23:04:14.812Z,79.96
2023-02-17T23:09:17.936Z,80.03
2023-02-17T23:14:21.843Z,79.26
2023-02-17T23:19:24.709Z,78.15
2023-02-17T23:24:27.063Z,77.36
2023-02-17T23:29:28.508Z,75.97
2023-02-17T23:34:30.579Z,74.34
2023-02-17T23:39:31.422Z,73.54
2023-02-17T23:44:32.063Z,74.38
2023-02-17T23:49:34.144Z,73.85
2023-02-17T23:54:34.809Z,73.89
2023-02-17T23:59:35.475Z,73.09
